Time;durP1;ratioP1;P1;durP2;ratioP2;P2;SDS_P1;SDS_P2;PMS_P1;PMS_P2;Temp;Humidity;BMP_temperature;BMP_pressure;BME280_temperature;BME280_humidity;BME280_pressure;Samples;Min_cycle;Max_cycle;Signal;HPM_P1;HPM_P2
2023/08/06 00:01:38;;;;;;;;;;;;;;;23.63;100.00;100256.16;5095101;28;19920;-58
2023/08/06 00:04:03;;;;;;;;;;;;;;;23.75;100.00;100260.31;5094675;28;19988;-56
2023/08/06 00:06:29;;;;;;;;;;;;;;;23.87;100.00;100257.13;5101467;28;19920;-56
2023/08/06 00:08:55;;;;;;;;;;;;;;;23.70;100.00;100257.69;5094875;28;19920;-58
2023/08/06 00:11:20;;;;;;;;;;;;;;;23.59;100.00;100257.88;5094943;28;19921;-59
2023/08/06 00:13:45;;;;;;;;;;;;;;;23.89;100.00;100255.72;5094823;28;19923;-57
2023/08/06 00:16:11;;;;;;;;;;;;;;;24.20;100.00;100251.66;5098463;28;19984;-56
2023/08/06 00:18:38;;;;;;;;;;;;;;;24.20;100.00;100255.19;5100535;28;19916;-57
2023/08/06 00:21:03;;;;;;;;;;;;;;;24.23;100.00;100253.00;5094553;28;19921;-57
2023/08/06 00:23:29;;;;;;;;;;;;;;;24.04;100.00;100251.94;5094667;28;19948;-58
2023/08/06 00:25:54;;;;;;;;;;;;;;;24.09;100.00;100245.59;5096811;28;20375;-58
2023/08/06 00:28:20;;;;;;;;;;;;;;;23.91;100.00;100242.59;5077148;28;19916;-58
2023/08/06 00:30:46;;;;;;;;;;;;;;;24.21;100.00;100242.34;5110549;28;19916;-56
2023/08/06 00:33:11;;;;;;;;;;;;;;;24.79;100.00;100242.06;5094560;28;19920;-57
2023/08/06 00:35:37;;;;;;;;;;;;;;;24.62;100.00;100251.66;5096197;28;19947;-58
2023/08/06 00:38:02;;;;;;;;;;;;;;;24.63;100.00;100245.06;5080726;28;19916;-57
2023/08/06 00:40:30;;;;;;;;;;;;;;;24.59;100.00;100257.75;5114153;28;19920;-55
2023/08/06 00:42:55;;;;;;;;;;;;;;;24.58;100.00;100246.00;5098296;28;19916;-56
2023/08/06 00:45:22;;;;;;;;;;;;;;;24.47;100.00;100253.59;5114132;28;19952;-52
2023/08/06 00:47:50;;;;;;;;;;;;;;;24.39;100.00;100250.78;5099721;28;19916;-52
2023/08/06 00:50:17;;;;;;;;;;;;;;;24.19;100.00;100237.19;5098519;28;19947;-54
2023/08/06 00:52:43;;;;;;;;;;;;;;;24.25;100.00;100250.75;5098113;28;19966;-57
2023/08/06 00:55:09;;;;;;;;;;;;;;;24.12;100.00;100236.78;5113986;28;19912;-57
2023/08/06 00:57:36;;;;;;;;;;;;;;;24.20;100.00;100238.00;5080556;28;19972;-58
2023/08/06 01:00:02;;;;;;;;;;;;;;;24.15;100.00;100243.56;5119534;28;19924;-59
2023/08/06 01:02:27;;;;;;;;;;;;;;;24.35;100.00;100247.81;5080316;28;19923;-57
2023/08/06 01:04:53;;;;;;;;;;;;;;;23.65;100.00;100249.59;5097759;28;19923;-59
2023/08/06 01:07:38;;;;;;;;;;;;;;;23.74;100.00;100253.25;5113870;28;19924;-57
2023/08/06 01:10:22;;;;;;;;;;;;;;;24.00;100.00;100244.63;5095701;28;19939;-56
2023/08/06 01:12:55;;;;;;;;;;;;;;;24.10;100.00;100243.63;5079801;28;19916;-58
2023/08/06 01:15:23;;;;;;;;;;;;;;;24.07;100.00;100245.06;5094758;28;19931;-54
2023/08/06 01:17:49;;;;;;;;;;;;;;;24.18;100.00;100240.22;5084430;28;19922;-57
2023/08/06 01:20:15;;;;;;;;;;;;;;;24.20;100.00;100244.25;5101605;28;19927;-55
2023/08/06 01:22:40;;;;;;;;;;;;;;;24.06;100.00;100238.78;5080085;28;19951;-57
2023/08/06 01:25:06;;;;;;;;;;;;;;;24.02;100.00;100240.50;5079842;28;19917;-57
2023/08/06 01:27:48;;;;;;;;;;;;;;;23.77;100.00;100245.28;5089698;28;19921;-56
2023/08/06 01:30:25;;;;;;;;;;;;;;;24.21;100.00;100239.63;5098258;28;19916;-57
2023/08/06 01:32:53;;;;;;;;;;;;;;;24.27;100.00;100240.34;5097417;28;19917;-57
2023/08/06 01:35:19;;;;;;;;;;;;;;;24.13;100.00;100243.84;5097071;28;19917;-52
2023/08/06 01:37:47;;;;;;;;;;;;;;;23.89;100.00;100244.81;5103386;28;19917;-53
2023/08/06 01:40:12;;;;;;;;;;;;;;;23.73;100.00;100247.00;5107971;28;19921;-54
2023/08/06 01:42:38;;;;;;;;;;;;;;;23.72;100.00;100244.56;5097449;28;19923;-56
2023/08/06 01:45:05;;;;;;;;;;;;;;;23.04;100.00;100237.34;5096463;28;19916;-55
2023/08/06 01:47:30;;;;;;;;;;;;;;;23.13;100.00;100239.44;5101136;28;19926;-51
2023/08/06 01:49:56;;;;;;;;;;;;;;;22.75;100.00;100240.22;5096653;28;19916;-58
2023/08/06 01:52:22;;;;;;;;;;;;;;;22.70;100.00;100238.38;5079393;28;19923;-54
2023/08/06 01:54:48;;;;;;;;;;;;;;;22.56;100.00;100232.81;5112896;28;19923;-57
2023/08/06 01:57:13;;;;;;;;;;;;;;;23.45;100.00;100235.16;5097784;28;19916;-59
2023/08/06 01:59:39;;;;;;;;;;;;;;;23.29;100.00;100243.56;5084475;28;19960;-54
2023/08/06 02:02:04;;;;;;;;;;;;;;;23.41;100.00;100239.59;5110981;28;19943;-56
2023/08/06 02:04:29;;;;;;;;;;;;;;;23.62;100.00;100237.34;5096422;28;19984;-54
2023/08/06 02:06:55;;;;;;;;;;;;;;;23.79;100.00;100247.72;5104376;28;19924;-57
2023/08/06 02:09:21;;;;;;;;;;;;;;;23.94;100.00;100240.34;5116404;28;20692;-57
2023/08/06 02:11:46;;;;;;;;;;;;;;;23.84;100.00;100241.34;5096378;28;19916;-57
2023/08/06 02:14:12;;;;;;;;;;;;;;;23.90;100.00;100237.44;5112217;28;19920;-56
2023/08/06 02:16:38;;;;;;;;;;;;;;;23.73;100.00;100237.97;5099979;28;19923;-53
2023/08/06 02:19:04;;;;;;;;;;;;;;;23.93;100.00;100231.38;5117065;28;19987;-56
2023/08/06 02:21:29;;;;;;;;;;;;;;;24.26;100.00;100230.53;5082028;28;19985;-54
2023/08/06 02:23:55;;;;;;;;;;;;;;;24.25;100.00;100237.09;5096020;28;19924;-57
2023/08/06 02:26:20;;;;;;;;;;;;;;;24.42;100.00;100237.28;5096403;28;19926;-56
2023/08/06 02:28:46;;;;;;;;;;;;;;;24.31;100.00;100233.16;5080978;28;19916;-57
2023/08/06 02:31:13;;;;;;;;;;;;;;;24.33;100.00;100236.41;5098100;28;19917;-56
2023/08/06 02:33:39;;;;;;;;;;;;;;;24.23;100.00;100237.41;5112062;28;19980;-55
2023/08/06 02:36:04;;;;;;;;;;;;;;;24.51;100.00;100237.41;5095993;28;19916;-56
2023/08/06 02:38:30;;;;;;;;;;;;;;;24.29;100.00;100233.44;5095722;28;19916;-51
2023/08/06 02:40:56;;;;;;;;;;;;;;;24.26;100.00;100230.53;5099916;28;19921;-54
2023/08/06 02:43:22;;;;;;;;;;;;;;;24.19;100.00;100231.72;5078118;28;19923;-54
2023/08/06 02:45:49;;;;;;;;;;;;;;;24.31;100.00;100224.97;5077923;28;19948;-54
2023/08/06 02:48:14;;;;;;;;;;;;;;;24.81;100.00;100228.88;5077916;28;19946;-57
2023/08/06 02:50:41;;;;;;;;;;;;;;;24.94;100.00;100232.72;5120114;28;19923;-59
2023/08/06 02:53:07;;;;;;;;;;;;;;;24.89;100.00;100226.25;5113388;28;19916;-55
2023/08/06 02:55:33;;;;;;;;;;;;;;;25.02;100.00;100227.31;5111848;28;19917;-56
2023/08/06 02:58:02;;;;;;;;;;;;;;;24.76;100.00;100227.88;5111112;28;19921;-56
2023/08/06 03:00:32;;;;;;;;;;;;;;;24.79;100.00;100223.72;5082379;28;19960;-56
2023/08/06 03:02:59;;;;;;;;;;;;;;;24.91;100.00;100221.28;5076549;28;19921;-53
2023/08/06 03:05:51;;;;;;;;;;;;;;;25.02;100.00;100227.31;5095192;28;19984;-57
2023/08/06 03:08:22;;;;;;;;;;;;;;;24.75;100.00;100228.19;5088757;28;19916;-56
2023/08/06 03:10:48;;;;;;;;;;;;;;;24.78;100.00;100227.56;5114531;28;19920;-57
2023/08/06 03:13:14;;;;;;;;;;;;;;;24.94;100.00;100227.25;5077818;28;19923;-57
2023/08/06 03:15:40;;;;;;;;;;;;;;;23.82;100.00;100214.34;5095444;28;19920;-58
2023/08/06 03:18:08;;;;;;;;;;;;;;;23.58;100.00;100223.50;5077767;28;19916;-57
2023/08/06 03:20:34;;;;;;;;;;;;;;;23.54;100.00;100222.47;5095180;28;19921;-57
2023/08/06 03:23:00;;;;;;;;;;;;;;;23.55;100.00;100229.56;5077784;28;19942;-57
2023/08/06 03:25:26;;;;;;;;;;;;;;;23.45;100.00;100219.63;5111448;28;19959;-57
2023/08/06 03:27:52;;;;;;;;;;;;;;;23.49;100.00;100225.28;5085165;28;19969;-57
2023/08/06 03:30:19;;;;;;;;;;;;;;;23.69;100.00;100223.31;5114050;28;19916;-58
2023/08/06 03:32:47;;;;;;;;;;;;;;;23.62;100.00;100226.41;5111409;28;19955;-58
2023/08/06 03:35:14;;;;;;;;;;;;;;;23.39;100.00;100228.19;5111100;28;19919;-60
2023/08/06 03:37:40;;;;;;;;;;;;;;;23.43;100.00;100226.47;5095349;28;19916;-57
2023/08/06 03:40:06;;;;;;;;;;;;;;;23.48;100.00;100221.75;5098283;28;19923;-58
2023/08/06 03:42:33;;;;;;;;;;;;;;;23.55;100.00;100226.84;5113275;28;19916;-56
2023/08/06 03:44:59;;;;;;;;;;;;;;;23.62;100.00;100224.53;5111037;28;19923;-53
2023/08/06 03:47:25;;;;;;;;;;;;;;;23.82;100.00;100224.47;5096762;28;19924;-59
2023/08/06 03:49:52;;;;;;;;;;;;;;;24.30;100.00;100217.88;5079505;28;19920;-55
2023/08/06 03:52:19;;;;;;;;;;;;;;;24.26;100.00;100225.84;5111080;28;19984;-57
2023/08/06 03:54:46;;;;;;;;;;;;;;;24.06;100.00;100227.06;5077488;28;19939;-53
2023/08/06 03:57:11;;;;;;;;;;;;;;;24.05;100.00;100230.91;5094941;28;19924;-55
2023/08/06 03:59:37;;;;;;;;;;;;;;;24.34;100.00;100227.09;5078030;28;19913;-54
2023/08/06 04:02:03;;;;;;;;;;;;;;;24.80;100.00;100228.09;5082870;28;19927;-53
2023/08/06 04:04:28;;;;;;;;;;;;;;;24.76;100.00;100227.88;5077179;28;19921;-57
2023/08/06 04:06:54;;;;;;;;;;;;;;;24.87;100.00;100227.66;5094987;28;19916;-58
2023/08/06 04:09:21;;;;;;;;;;;;;;;25.03;100.00;100222.69;5077084;28;19976;-57
2023/08/06 04:11:46;;;;;;;;;;;;;;;24.57;100.00;100224.44;5114448;28;19924;-52
2023/08/06 04:14:12;;;;;;;;;;;;;;;24.57;100.00;100219.78;5098701;28;19956;-54
2023/08/06 04:16:37;;;;;;;;;;;;;;;24.68;100.00;100225.84;5098550;28;19916;-58
2023/08/06 04:19:03;;;;;;;;;;;;;;;24.40;100.00;100231.31;5107178;28;19917;-58
2023/08/06 04:21:28;;;;;;;;;;;;;;;24.73;100.00;100227.66;5098077;28;19934;-55
2023/08/06 04:23:55;;;;;;;;;;;;;;;24.89;100.00;100237.19;5081018;28;19928;-55
2023/08/06 04:26:21;;;;;;;;;;;;;;;24.97;100.00;100241.13;5098349;28;19955;-56
2023/08/06 04:28:47;;;;;;;;;;;;;;;25.00;100.00;100240.50;5098291;28;19924;-56
2023/08/06 04:31:13;;;;;;;;;;;;;;;24.83;100.00;100240.31;5116965;28;19917;-58
2023/08/06 04:33:40;;;;;;;;;;;;;;;24.79;100.00;100239.31;5083064;28;19916;-60
2023/08/06 04:36:09;;;;;;;;;;;;;;;24.75;100.00;100237.22;5114398;28;19917;-57
2023/08/06 04:38:34;;;;;;;;;;;;;;;24.66;100.00;100247.19;5098267;28;19916;-53
2023/08/06 04:41:01;;;;;;;;;;;;;;;24.64;100.00;100252.16;5080766;28;19942;-55
2023/08/06 04:43:26;;;;;;;;;;;;;;;24.65;100.00;100253.00;5096143;28;19916;-56
2023/08/06 04:45:53;;;;;;;;;;;;;;;24.81;100.00;100251.59;5080793;28;19965;-57
2023/08/06 04:48:19;;;;;;;;;;;;;;;24.79;100.00;100253.00;5097866;28;19916;-59
2023/08/06 04:50:44;;;;;;;;;;;;;;;24.72;100.00;100248.72;5100842;28;20003;-58
2023/08/06 04:53:10;;;;;;;;;;;;;;;24.69;100.00;100248.53;5099324;28;19927;-57
2023/08/06 04:55:36;;;;;;;;;;;;;;;24.70;100.00;100256.44;5098169;28;19916;-57
2023/08/06 04:58:01;;;;;;;;;;;;;;;24.75;100.00;100253.63;5080246;28;19944;-55
2023/08/06 05:00:26;;;;;;;;;;;;;;;24.83;100.00;100256.72;5097916;28;19935;-58
2023/08/06 05:02:52;;;;;;;;;;;;;;;24.74;100.00;100253.88;5097685;28;19943;-54
2023/08/06 05:05:18;;;;;;;;;;;;;;;24.13;100.00;100259.44;5097899;28;19916;-58
2023/08/06 05:07:43;;;;;;;;;;;;;;;24.68;100.00;100261.41;5097769;28;19916;-56
2023/08/06 05:10:09;;;;;;;;;;;;;;;24.53;100.00;100262.50;5097690;28;19944;-58
2023/08/06 05:12:34;;;;;;;;;;;;;;;24.71;100.00;100266.25;5103501;28;19923;-58
2023/08/06 05:15:00;;;;;;;;;;;;;;;24.94;100.00;100265.53;5097875;28;19917;-56
2023/08/06 05:17:25;;;;;;;;;;;;;;;25.00;100.00;100269.75;5097506;28;19916;-55
2023/08/06 05:19:51;;;;;;;;;;;;;;;24.62;100.00;100276.25;5101082;28;19920;-55
2023/08/06 05:22:16;;;;;;;;;;;;;;;24.79;100.00;100270.19;5101926;28;19960;-57
2023/08/06 05:24:42;;;;;;;;;;;;;;;25.00;100.00;100275.22;5097513;28;19938;-58
2023/08/06 05:27:07;;;;;;;;;;;;;;;25.01;100.00;100282.31;5097357;28;19938;-58
2023/08/06 05:29:33;;;;;;;;;;;;;;;25.14;100.00;100297.09;5097491;28;19923;-55
2023/08/06 05:31:58;;;;;;;;;;;;;;;24.76;100.00;100293.50;5102345;28;19922;-57
2023/08/06 05:34:24;;;;;;;;;;;;;;;24.55;100.00;100292.25;5097336;28;19916;-57
2023/08/06 05:36:50;;;;;;;;;;;;;;;24.94;100.00;100292.88;5097192;28;19916;-58
2023/08/06 05:39:16;;;;;;;;;;;;;;;24.78;100.00;100298.66;5104641;28;19923;-59
2023/08/06 05:41:41;;;;;;;;;;;;;;;24.45;100.00;100296.84;5099295;28;19954;-58
2023/08/06 05:44:07;;;;;;;;;;;;;;;24.70;100.00;100297.44;5097087;28;19943;-58
2023/08/06 05:46:32;;;;;;;;;;;;;;;24.65;100.00;100305.72;5096936;28;19920;-56
2023/08/06 05:48:58;;;;;;;;;;;;;;;24.53;100.00;100317.16;5101020;28;19979;-59
2023/08/06 05:51:23;;;;;;;;;;;;;;;25.25;100.00;100320.38;5099301;28;19931;-56
2023/08/06 05:53:50;;;;;;;;;;;;;;;25.55;100.00;100323.56;5097007;28;19927;-58
2023/08/06 05:56:16;;;;;;;;;;;;;;;25.81;100.00;100328.41;5096519;28;19917;-57
2023/08/06 05:58:41;;;;;;;;;;;;;;;25.95;100.00;100322.91;5096740;28;19921;-56
2023/08/06 06:01:07;;;;;;;;;;;;;;;25.98;100.00;100324.19;5096630;28;19959;-54
2023/08/06 06:03:32;;;;;;;;;;;;;;;26.11;100.00;100326.06;5099921;28;19916;-52
2023/08/06 06:05:59;;;;;;;;;;;;;;;26.26;100.00;100335.84;5096458;28;19921;-56
2023/08/06 06:08:25;;;;;;;;;;;;;;;26.57;100.00;100334.22;5097113;28;19938;-56
2023/08/06 06:10:50;;;;;;;;;;;;;;;26.58;100.00;100336.63;5098790;28;19917;-58
2023/08/06 06:13:16;;;;;;;;;;;;;;;26.71;100.00;100343.13;5096303;28;19920;-56
2023/08/06 06:15:41;;;;;;;;;;;;;;;26.65;100.00;100354.56;5096308;28;19988;-59
2023/08/06 06:18:07;;;;;;;;;;;;;;;26.88;100.00;100352.56;5096509;28;19916;-57
2023/08/06 06:20:32;;;;;;;;;;;;;;;26.45;100.00;100354.78;5107086;28;19935;-59
2023/08/06 06:22:58;;;;;;;;;;;;;;;26.55;100.00;100361.94;5098126;28;20011;-59
2023/08/06 06:25:23;;;;;;;;;;;;;;;26.46;100.00;100359.13;5095864;28;19928;-58
2023/08/06 06:27:49;;;;;;;;;;;;;;;26.05;100.00;100363.72;5096142;28;19990;-59
2023/08/06 06:30:14;;;;;;;;;;;;;;;26.08;100.00;100367.78;5103800;28;19927;-59
2023/08/06 06:32:40;;;;;;;;;;;;;;;26.45;100.00;100363.00;5095919;28;19916;-59
2023/08/06 06:35:06;;;;;;;;;;;;;;;26.41;100.00;100373.00;5096114;28;19919;-59
2023/08/06 06:37:31;;;;;;;;;;;;;;;26.39;100.00;100377.97;5096053;28;19920;-59
2023/08/06 06:39:57;;;;;;;;;;;;;;;26.35;100.00;100385.22;5100101;28;19984;-56
2023/08/06 06:42:22;;;;;;;;;;;;;;;26.15;100.00;100370.88;5097647;28;19928;-58
2023/08/06 06:44:51;;;;;;;;;;;;;;;26.27;100.00;100384.03;5078202;28;19916;-58
2023/08/06 06:47:16;;;;;;;;;;;;;;;26.26;100.00;100381.59;5095741;28;19924;-59
2023/08/06 06:49:42;;;;;;;;;;;;;;;26.13;100.00;100375.88;5095659;28;19920;-57
2023/08/06 06:52:08;;;;;;;;;;;;;;;25.81;100.00;100385.13;5095783;28;19922;-58
2023/08/06 06:54:33;;;;;;;;;;;;;;;25.57;100.00;100381.53;5097316;28;19932;-57
2023/08/06 06:56:59;;;;;;;;;;;;;;;24.77;100.00;100377.16;5095604;28;19921;-53
2023/08/06 06:59:24;;;;;;;;;;;;;;;25.03;100.00;100378.59;5096854;28;19916;-57
2023/08/06 07:01:49;;;;;;;;;;;;;;;25.40;100.00;100386.84;5105932;28;19921;-56
2023/08/06 07:04:15;;;;;;;;;;;;;;;25.44;100.00;100385.91;5107305;28;19992;-56
2023/08/06 07:06:41;;;;;;;;;;;;;;;25.27;100.00;100383.81;5095727;28;19923;-60
2023/08/06 07:09:06;;;;;;;;;;;;;;;25.86;100.00;100393.22;5095334;28;20004;-57
2023/08/06 07:11:31;;;;;;;;;;;;;;;25.60;100.00;100388.34;5095493;28;19920;-57
2023/08/06 07:13:58;;;;;;;;;;;;;;;26.10;100.00;100392.94;5103403;28;19920;-56
2023/08/06 07:16:24;;;;;;;;;;;;;;;25.81;100.00;100402.34;5095245;28;19939;-56
2023/08/06 07:18:50;;;;;;;;;;;;;;;24.75;100.00;100390.31;5095308;28;19916;-58
2023/08/06 07:21:16;;;;;;;;;;;;;;;25.45;100.00;100392.19;5095083;28;19920;-59
2023/08/06 07:23:42;;;;;;;;;;;;;;;25.61;100.00;100399.00;5100853;28;19916;-57
2023/08/06 07:26:09;;;;;;;;;;;;;;;25.27;100.00;100399.44;5095143;28;19916;-53
2023/08/06 07:28:34;;;;;;;;;;;;;;;25.83;100.00;100410.28;5094978;28;19912;-52
2023/08/06 07:31:02;;;;;;;;;;;;;;;25.56;100.00;100410.03;5095309;28;19948;-54
2023/08/06 07:33:27;;;;;;;;;;;;;;;25.63;100.00;100418.66;5097893;28;19941;-56
2023/08/06 07:35:52;;;;;;;;;;;;;;;25.84;100.00;100409.97;5095314;28;19926;-54
2023/08/06 07:38:18;;;;;;;;;;;;;;;25.11;100.00;100409.84;5094619;28;19956;-53
2023/08/06 07:40:44;;;;;;;;;;;;;;;24.98;100.00;100420.50;5094945;28;19943;-57
2023/08/06 07:43:10;;;;;;;;;;;;;;;24.96;100.00;100421.91;5096017;28;19916;-57
2023/08/06 07:45:36;;;;;;;;;;;;;;;24.81;100.00;100423.03;5098999;28;19928;-59
2023/08/06 07:48:02;;;;;;;;;;;;;;;23.58;100.00;100419.16;5101402;28;19966;-58
2023/08/06 07:50:27;;;;;;;;;;;;;;;23.77;100.00;100421.94;5101657;28;19917;-56
2023/08/06 07:52:52;;;;;;;;;;;;;;;23.83;100.00;100420.75;5102013;28;19916;-57
2023/08/06 07:55:18;;;;;;;;;;;;;;;24.13;100.00;100415.94;5102837;28;19939;-57
2023/08/06 07:57:43;;;;;;;;;;;;;;;23.92;100.00;100424.41;5101528;28;19923;-55
2023/08/06 08:00:09;;;;;;;;;;;;;;;23.97;100.00;100430.91;5103905;28;19916;-57
2023/08/06 08:02:38;;;;;;;;;;;;;;;23.96;100.00;100432.00;5105651;28;19920;-58
2023/08/06 08:05:07;;;;;;;;;;;;;;;22.92;100.00;100427.84;5109935;28;19920;-57
2023/08/06 08:07:32;;;;;;;;;;;;;;;23.22;100.00;100441.44;5101477;28;19924;-59
2023/08/06 08:09:57;;;;;;;;;;;;;;;23.21;100.00;100435.16;5101260;28;19928;-59
2023/08/06 08:12:23;;;;;;;;;;;;;;;22.94;100.00;100443.88;5101271;28;19916;-58
2023/08/06 08:14:48;;;;;;;;;;;;;;;23.13;100.00;100441.25;5105221;28;19951;-59
2023/08/06 08:17:14;;;;;;;;;;;;;;;21.93;100.00;100441.44;5101226;28;19917;-59
2023/08/06 08:19:40;;;;;;;;;;;;;;;21.54;100.00;100442.97;5106403;28;19916;-60
2023/08/06 08:22:06;;;;;;;;;;;;;;;21.94;100.00;100444.97;5107651;28;19924;-59
2023/08/06 08:24:31;;;;;;;;;;;;;;;22.02;100.00;100449.81;5099887;28;19920;-58
2023/08/06 08:26:57;;;;;;;;;;;;;;;23.06;100.00;100457.94;5100849;28;19916;-58
2023/08/06 08:29:22;;;;;;;;;;;;;;;23.03;100.00;100461.25;5101041;28;19962;-59
2023/08/06 08:31:51;;;;;;;;;;;;;;;22.69;100.00;100448.50;5093024;28;19951;-58
2023/08/06 08:34:17;;;;;;;;;;;;;;;23.17;100.00;100464.91;5101073;28;19920;-59
2023/08/06 08:36:43;;;;;;;;;;;;;;;23.46;100.00;100460.53;5101094;28;19927;-56
2023/08/06 08:39:08;;;;;;;;;;;;;;;23.72;100.00;100460.19;5100974;28;19959;-58
2023/08/06 08:41:35;;;;;;;;;;;;;;;23.33;100.00;100462.88;5096013;28;19967;-57
2023/08/06 08:44:00;;;;;;;;;;;;;;;23.66;100.00;100461.38;5100932;28;19921;-58
2023/08/06 08:46:26;;;;;;;;;;;;;;;22.30;100.00;100461.88;5100824;28;19923;-59
2023/08/06 08:48:53;;;;;;;;;;;;;;;23.17;100.00;100461.38;5096248;28;19920;-59
2023/08/06 08:51:19;;;;;;;;;;;;;;;23.11;100.00;100476.97;5097288;28;19924;-60
2023/08/06 08:53:45;;;;;;;;;;;;;;;22.95;100.00;100468.16;5102882;28;19916;-59
2023/08/06 08:56:12;;;;;;;;;;;;;;;22.64;100.00;100468.44;5103764;28;19917;-59
2023/08/06 08:58:37;;;;;;;;;;;;;;;22.99;100.00;100474.66;5097758;28;19917;-61
2023/08/06 09:01:04;;;;;;;;;;;;;;;23.03;100.00;100475.69;5098620;28;19988;-60
2023/08/06 09:03:30;;;;;;;;;;;;;;;22.86;100.00;100476.13;5097660;28;19921;-60
2023/08/06 09:05:57;;;;;;;;;;;;;;;23.00;100.00;100481.72;5093137;28;19916;-58
2023/08/06 09:08:27;;;;;;;;;;;;;;;23.27;100.00;100476.84;5097270;28;19948;-61
2023/08/06 09:10:53;;;;;;;;;;;;;;;24.07;100.00;100482.69;5097502;28;19921;-60
2023/08/06 09:13:21;;;;;;;;;;;;;;;24.33;100.00;100480.34;5090644;28;19975;-60
2023/08/06 09:15:46;;;;;;;;;;;;;;;23.66;100.00;100488.66;5097176;28;19916;-59
2023/08/06 09:18:12;;;;;;;;;;;;;;;22.85;100.00;100487.34;5097133;28;19935;-60
2023/08/06 09:20:40;;;;;;;;;;;;;;;23.24;100.00;100491.84;5097371;28;19920;-60
2023/08/06 09:23:10;;;;;;;;;;;;;;;23.25;100.00;100498.97;5097233;28;19916;-61
2023/08/06 09:25:40;;;;;;;;;;;;;;;23.96;100.00;100498.38;5101123;28;19952;-60
2023/08/06 09:28:05;;;;;;;;;;;;;;;24.63;100.00;100504.75;5077309;28;19917;-60
2023/08/06 09:30:35;;;;;;;;;;;;;;;24.47;100.00;100507.78;5082208;28;19972;-60
2023/08/06 09:33:01;;;;;;;;;;;;;;;23.99;100.00;100510.59;5102683;28;19924;-59
2023/08/06 09:35:30;;;;;;;;;;;;;;;23.71;100.00;100515.88;5102033;28;19912;-60
2023/08/06 09:38:10;;;;;;;;;;;;;;;24.06;100.00;100519.31;5096696;28;19948;-59
2023/08/06 09:40:36;;;;;;;;;;;;;;;24.10;100.00;100522.22;5085233;28;19917;-58
2023/08/06 09:43:01;;;;;;;;;;;;;;;24.11;100.00;100532.88;5084958;28;19948;-61
2023/08/06 09:45:34;;;;;;;;;;;;;;;22.90;100.00;100531.72;5097957;28;19924;-59
2023/08/06 09:48:02;;;;;;;;;;;;;;;23.20;100.00;100534.44;5096445;28;19932;-59
2023/08/06 09:50:31;;;;;;;;;;;;;;;23.50;100.00;100537.97;5096653;28;19939;-60
2023/08/06 09:52:57;;;;;;;;;;;;;;;23.28;100.00;100533.84;5095267;28;19999;-60
2023/08/06 09:55:25;;;;;;;;;;;;;;;23.16;100.00;100539.66;5078236;28;19916;-60
2023/08/06 09:57:50;;;;;;;;;;;;;;;24.18;100.00;100538.78;5093064;28;19917;-60
2023/08/06 10:00:17;;;;;;;;;;;;;;;23.97;100.00;100535.50;5088542;28;19927;-60
2023/08/06 10:02:45;;;;;;;;;;;;;;;24.44;100.00;100541.13;5093676;28;19927;-59
2023/08/06 10:05:10;;;;;;;;;;;;;;;23.94;100.00;100540.72;5099288;28;19916;-61
2023/08/06 10:07:36;;;;;;;;;;;;;;;23.81;100.00;100544.97;5096173;28;19916;-60
2023/08/06 10:10:02;;;;;;;;;;;;;;;24.11;100.00;100541.06;5092729;28;19920;-60
2023/08/06 10:12:29;;;;;;;;;;;;;;;23.03;100.00;100546.59;5091030;28;19923;-60
2023/08/06 10:14:57;;;;;;;;;;;;;;;22.94;100.00;100551.06;5096297;28;20002;-60
2023/08/06 10:17:23;;;;;;;;;;;;;;;22.99;100.00;100551.00;5096286;28;19983;-60
2023/08/06 10:19:50;;;;;;;;;;;;;;;22.87;100.00;100553.31;5096251;28;19976;-60
2023/08/06 10:22:17;;;;;;;;;;;;;;;22.43;100.00;100561.22;5099493;28;19930;-59
2023/08/06 10:24:50;;;;;;;;;;;;;;;23.69;100.00;100567.25;5105304;28;19916;-59
2023/08/06 10:27:22;;;;;;;;;;;;;;;24.38;100.00;100566.91;5095383;28;19916;-60
2023/08/06 10:29:49;;;;;;;;;;;;;;;24.67;100.00;100571.41;5096230;28;19916;-59
2023/08/06 10:32:14;;;;;;;;;;;;;;;23.91;100.00;100572.97;5094962;28;19985;-58
2023/08/06 10:34:58;;;;;;;;;;;;;;;22.99;100.00;100574.75;5096056;28;19968;-60
2023/08/06 10:37:24;;;;;;;;;;;;;;;23.52;100.00;100582.16;5095664;28;19920;-60
2023/08/06 10:39:51;;;;;;;;;;;;;;;23.34;100.00;100587.25;5095653;28;19913;-60
2023/08/06 10:42:22;;;;;;;;;;;;;;;22.91;100.00;100576.16;5101412;28;19928;-59
2023/08/06 10:45:06;;;;;;;;;;;;;;;23.03;100.00;100587.50;5099041;28;19984;-59
2023/08/06 10:47:37;;;;;;;;;;;;;;;22.02;100.00;100577.78;5095832;28;19916;-58
2023/08/06 10:50:03;;;;;;;;;;;;;;;22.53;100.00;100592.25;5094716;28;19916;-58
2023/08/06 10:52:28;;;;;;;;;;;;;;;23.31;100.00;100592.47;5097809;28;19920;-60
2023/08/06 10:54:55;;;;;;;;;;;;;;;22.51;100.00;100591.72;5094713;28;19928;-60
2023/08/06 10:57:20;;;;;;;;;;;;;;;23.55;100.00;100592.50;5094919;28;19923;-61
2023/08/06 10:59:45;;;;;;;;;;;;;;;23.55;100.00;100589.78;5093877;28;19916;-59
2023/08/06 11:02:10;;;;;;;;;;;;;;;23.68;100.00;100592.91;5097335;28;19920;-59
2023/08/06 11:04:36;;;;;;;;;;;;;;;23.78;100.00;100595.53;5095282;28;19938;-59
2023/08/06 11:07:01;;;;;;;;;;;;;;;24.67;100.00;100598.72;5095263;28;19927;-59
2023/08/06 11:09:27;;;;;;;;;;;;;;;23.67;100.00;100591.28;5093906;28;19916;-60
2023/08/06 11:11:52;;;;;;;;;;;;;;;24.03;100.00;100590.91;5077636;28;19970;-59
2023/08/06 11:14:18;;;;;;;;;;;;;;;24.38;100.00;100594.25;5094536;28;19916;-59
2023/08/06 11:16:43;;;;;;;;;;;;;;;24.21;100.00;100586.56;5094199;28;20360;-59
2023/08/06 11:19:09;;;;;;;;;;;;;;;23.88;100.00;100591.88;5094694;28;19916;-60
2023/08/06 11:21:35;;;;;;;;;;;;;;;24.58;100.00;100598.63;5094611;28;19927;-59
2023/08/06 11:24:00;;;;;;;;;;;;;;;23.95;100.00;100602.44;5099138;28;19920;-60
2023/08/06 11:26:28;;;;;;;;;;;;;;;23.94;100.00;100600.81;5093116;28;19917;-60
2023/08/06 11:28:53;;;;;;;;;;;;;;;23.89;100.00;100607.16;5095078;28;19923;-60
2023/08/06 11:31:22;;;;;;;;;;;;;;;23.94;100.00;100592.59;5094629;28;19916;-60
2023/08/06 11:33:49;;;;;;;;;;;;;;;23.46;100.00;100602.41;5098149;28;19946;-59
2023/08/06 11:36:15;;;;;;;;;;;;;;;23.76;100.00;100605.94;5094514;28;19926;-57
2023/08/06 11:38:40;;;;;;;;;;;;;;;24.32;100.00;100606.38;5093390;28;19916;-59
2023/08/06 11:41:06;;;;;;;;;;;;;;;24.26;100.00;100613.81;5094886;28;19920;-59
2023/08/06 11:43:32;;;;;;;;;;;;;;;23.39;100.00;100623.78;5099361;28;19916;-60
2023/08/06 11:46:00;;;;;;;;;;;;;;;23.66;100.00;100619.69;5095183;28;19922;-61
2023/08/06 11:48:25;;;;;;;;;;;;;;;23.25;100.00;100612.69;5077398;28;19938;-60
2023/08/06 11:50:53;;;;;;;;;;;;;;;23.63;100.00;100619.16;5095065;28;19975;-60
2023/08/06 11:53:19;;;;;;;;;;;;;;;24.08;100.00;100620.88;5095163;28;19916;-60
2023/08/06 11:55:45;;;;;;;;;;;;;;;23.96;100.00;100634.09;5094990;28;19924;-60
2023/08/06 11:58:14;;;;;;;;;;;;;;;23.65;100.00;100623.53;5094727;28;19901;-61
2023/08/06 12:00:39;;;;;;;;;;;;;;;24.12;100.00;100632.84;5094845;28;19916;-60
2023/08/06 12:03:05;;;;;;;;;;;;;;;24.41;100.00;100628.38;5094846;28;19916;-61
2023/08/06 12:05:31;;;;;;;;;;;;;;;24.68;100.00;100629.63;5094180;28;19916;-60
2023/08/06 12:07:57;;;;;;;;;;;;;;;24.88;100.00;100634.00;5093342;28;19916;-59
2023/08/06 12:10:24;;;;;;;;;;;;;;;24.41;100.00;100626.44;5093315;28;19920;-60
2023/08/06 12:12:50;;;;;;;;;;;;;;;24.36;100.00;100633.91;5083559;28;19950;-59
2023/08/06 12:15:15;;;;;;;;;;;;;;;24.34;100.00;100639.66;5098947;28;19916;-60
2023/08/06 12:17:42;;;;;;;;;;;;;;;24.08;100.00;100645.47;5094666;28;19916;-60
2023/08/06 12:20:08;;;;;;;;;;;;;;;23.88;100.00;100643.75;5094794;28;19916;-60
2023/08/06 12:22:35;;;;;;;;;;;;;;;24.58;100.00;100652.47;5094372;28;19956;-60
2023/08/06 12:25:02;;;;;;;;;;;;;;;24.27;100.00;100652.88;5094118;28;19917;-60